sensor_id;sensor_type;location;lat;lon;timestamp;P1;durP1;ratioP1;P2;durP2;ratioP2
72728;SDS011;60843;52.062;4.508;2023-05-14T00:00:59;18.40;;;9.57;;
72728;SDS011;60843;52.062;4.508;2023-05-14T00:03:25;20.55;;;8.68;;
72728;SDS011;60843;52.062;4.508;2023-05-14T00:05:50;18.48;;;10.23;;
72728;SDS011;60843;52.062;4.508;2023-05-14T00:08:17;18.70;;;10.73;;
72728;SDS011;60843;52.062;4.508;2023-05-14T00:10:42;16.90;;;9.60;;
72728;SDS011;60843;52.062;4.508;2023-05-14T00:13:08;20.30;;;10.63;;
72728;SDS011;60843;52.062;4.508;2023-05-14T00:15:33;10.67;;;5.23;;
72728;SDS011;60843;52.062;4.508;2023-05-14T00:17:58;16.57;;;9.47;;
72728;SDS011;60843;52.062;4.508;2023-05-14T00:20:24;18.48;;;9.43;;
72728;SDS011;60843;52.062;4.508;2023-05-14T00:22:49;20.07;;;9.93;;
72728;SDS011;60843;52.062;4.508;2023-05-14T00:25:14;18.07;;;10.47;;
72728;SDS011;60843;52.062;4.508;2023-05-14T00:27:40;17.73;;;8.90;;
72728;SDS011;60843;52.062;4.508;2023-05-14T00:30:05;22.33;;;10.03;;
72728;SDS011;60843;52.062;4.508;2023-05-14T00:32:31;21.75;;;11.65;;
72728;SDS011;60843;52.062;4.508;2023-05-14T00:34:58;20.40;;;9.50;;
72728;SDS011;60843;52.062;4.508;2023-05-14T00:37:23;16.27;;;9.70;;
72728;SDS011;60843;52.062;4.508;2023-05-14T00:39:49;17.83;;;9.18;;
72728;SDS011;60843;52.062;4.508;2023-05-14T00:42:14;16.23;;;9.73;;
72728;SDS011;60843;52.062;4.508;2023-05-14T00:44:39;19.67;;;9.40;;
72728;SDS011;60843;52.062;4.508;2023-05-14T00:47:05;19.43;;;9.03;;
72728;SDS011;60843;52.062;4.508;2023-05-14T00:49:31;20.55;;;10.88;;
72728;SDS011;60843;52.062;4.508;2023-05-14T00:51:56;21.45;;;11.48;;
72728;SDS011;60843;52.062;4.508;2023-05-14T00:54:24;23.42;;;11.45;;
72728;SDS011;60843;52.062;4.508;2023-05-14T00:56:51;22.13;;;11.20;;
72728;SDS011;60843;52.062;4.508;2023-05-14T00:59:17;20.45;;;10.80;;
72728;SDS011;60843;52.062;4.508;2023-05-14T01:01:42;21.27;;;11.02;;
72728;SDS011;60843;52.062;4.508;2023-05-14T01:04:07;22.93;;;11.60;;
72728;SDS011;60843;52.062;4.508;2023-05-14T01:14:58;19.77;;;10.50;;
72728;SDS011;60843;52.062;4.508;2023-05-14T01:17:25;19.27;;;9.60;;
72728;SDS011;60843;52.062;4.508;2023-05-14T01:19:54;19.02;;;10.25;;
72728;SDS011;60843;52.062;4.508;2023-05-14T01:22:20;16.80;;;9.60;;
72728;SDS011;60843;52.062;4.508;2023-05-14T01:24:46;21.83;;;10.13;;
72728;SDS011;60843;52.062;4.508;2023-05-14T01:29:56;17.80;;;9.75;;
72728;SDS011;60843;52.062;4.508;2023-05-14T01:32:39;22.70;;;11.13;;
72728;SDS011;60843;52.062;4.508;2023-05-14T01:35:05;20.77;;;10.68;;
72728;SDS011;60843;52.062;4.508;2023-05-14T01:37:32;18.33;;;10.27;;
72728;SDS011;60843;52.062;4.508;2023-05-14T01:39:57;19.70;;;11.73;;
72728;SDS011;60843;52.062;4.508;2023-05-14T01:42:23;21.33;;;11.38;;
72728;SDS011;60843;52.062;4.508;2023-05-14T01:44:49;19.98;;;11.20;;
72728;SDS011;60843;52.062;4.508;2023-05-14T01:47:15;23.35;;;12.38;;
72728;SDS011;60843;52.062;4.508;2023-05-14T01:49:40;26.97;;;12.43;;
72728;SDS011;60843;52.062;4.508;2023-05-14T01:52:06;26.67;;;13.03;;
72728;SDS011;60843;52.062;4.508;2023-05-14T01:54:32;30.83;;;12.68;;
72728;SDS011;60843;52.062;4.508;2023-05-14T01:56:58;27.08;;;13.10;;
72728;SDS011;60843;52.062;4.508;2023-05-14T01:59:24;25.73;;;12.67;;
72728;SDS011;60843;52.062;4.508;2023-05-14T02:01:49;30.52;;;13.15;;
72728;SDS011;60843;52.062;4.508;2023-05-14T02:04:15;22.37;;;11.43;;
72728;SDS011;60843;52.062;4.508;2023-05-14T02:06:40;20.13;;;11.23;;
72728;SDS011;60843;52.062;4.508;2023-05-14T02:09:05;26.63;;;12.57;;
72728;SDS011;60843;52.062;4.508;2023-05-14T02:11:31;24.52;;;13.18;;
72728;SDS011;60843;52.062;4.508;2023-05-14T02:13:56;25.87;;;11.97;;
72728;SDS011;60843;52.062;4.508;2023-05-14T02:16:21;27.25;;;12.15;;
72728;SDS011;60843;52.062;4.508;2023-05-14T02:18:47;21.97;;;10.87;;
72728;SDS011;60843;52.062;4.508;2023-05-14T02:21:12;28.15;;;12.90;;
72728;SDS011;60843;52.062;4.508;2023-05-14T02:23:38;24.80;;;13.73;;
72728;SDS011;60843;52.062;4.508;2023-05-14T02:26:04;29.57;;;13.67;;
72728;SDS011;60843;52.062;4.508;2023-05-14T02:28:29;30.35;;;13.55;;
72728;SDS011;60843;52.062;4.508;2023-05-14T02:30:58;23.97;;;11.90;;
72728;SDS011;60843;52.062;4.508;2023-05-14T02:33:25;24.23;;;11.68;;
72728;SDS011;60843;52.062;4.508;2023-05-14T02:35:52;29.77;;;14.03;;
72728;SDS011;60843;52.062;4.508;2023-05-14T02:38:18;27.45;;;14.80;;
72728;SDS011;60843;52.062;4.508;2023-05-14T02:40:44;27.27;;;14.57;;
72728;SDS011;60843;52.062;4.508;2023-05-14T02:43:09;26.50;;;13.40;;
72728;SDS011;60843;52.062;4.508;2023-05-14T02:45:37;28.70;;;13.13;;
72728;SDS011;60843;52.062;4.508;2023-05-14T02:48:03;32.50;;;14.77;;
72728;SDS011;60843;52.062;4.508;2023-05-14T02:50:28;29.10;;;14.38;;
72728;SDS011;60843;52.062;4.508;2023-05-14T02:52:54;28.75;;;14.07;;
72728;SDS011;60843;52.062;4.508;2023-05-14T02:55:19;27.20;;;14.17;;
72728;SDS011;60843;52.062;4.508;2023-05-14T02:57:46;26.45;;;13.63;;
72728;SDS011;60843;52.062;4.508;2023-05-14T03:00:11;27.42;;;14.90;;
72728;SDS011;60843;52.062;4.508;2023-05-14T03:02:37;31.52;;;15.38;;
72728;SDS011;60843;52.062;4.508;2023-05-14T03:05:02;34.40;;;16.08;;
72728;SDS011;60843;52.062;4.508;2023-05-14T03:07:31;28.08;;;13.55;;
72728;SDS011;60843;52.062;4.508;2023-05-14T03:09:57;33.60;;;15.40;;
72728;SDS011;60843;52.062;4.508;2023-05-14T03:12:24;33.60;;;15.00;;
72728;SDS011;60843;52.062;4.508;2023-05-14T03:14:49;34.67;;;13.23;;
72728;SDS011;60843;52.062;4.508;2023-05-14T03:17:15;31.10;;;14.60;;
72728;SDS011;60843;52.062;4.508;2023-05-14T03:19:40;28.65;;;13.95;;
72728;SDS011;60843;52.062;4.508;2023-05-14T03:22:05;33.73;;;16.23;;
72728;SDS011;60843;52.062;4.508;2023-05-14T03:24:31;29.27;;;14.50;;
72728;SDS011;60843;52.062;4.508;2023-05-14T03:26:56;31.30;;;15.17;;
72728;SDS011;60843;52.062;4.508;2023-05-14T03:29:21;33.83;;;15.07;;
72728;SDS011;60843;52.062;4.508;2023-05-14T03:31:47;27.30;;;13.73;;
72728;SDS011;60843;52.062;4.508;2023-05-14T03:34:12;34.63;;;15.85;;
72728;SDS011;60843;52.062;4.508;2023-05-14T03:36:38;31.97;;;14.77;;
72728;SDS011;60843;52.062;4.508;2023-05-14T03:39:04;32.13;;;15.32;;
72728;SDS011;60843;52.062;4.508;2023-05-14T03:41:31;31.95;;;16.45;;
72728;SDS011;60843;52.062;4.508;2023-05-14T03:43:56;38.10;;;16.02;;
72728;SDS011;60843;52.062;4.508;2023-05-14T03:46:21;35.10;;;16.27;;
72728;SDS011;60843;52.062;4.508;2023-05-14T03:48:47;32.57;;;15.80;;
72728;SDS011;60843;52.062;4.508;2023-05-14T03:51:13;34.40;;;16.27;;
72728;SDS011;60843;52.062;4.508;2023-05-14T03:53:38;34.35;;;15.35;;
72728;SDS011;60843;52.062;4.508;2023-05-14T03:56:04;32.72;;;16.02;;
72728;SDS011;60843;52.062;4.508;2023-05-14T03:58:29;25.80;;;13.20;;
72728;SDS011;60843;52.062;4.508;2023-05-14T04:00:55;28.17;;;13.87;;
72728;SDS011;60843;52.062;4.508;2023-05-14T04:03:20;29.30;;;14.48;;
72728;SDS011;60843;52.062;4.508;2023-05-14T04:05:46;29.15;;;14.73;;
72728;SDS011;60843;52.062;4.508;2023-05-14T04:08:11;38.55;;;15.15;;
72728;SDS011;60843;52.062;4.508;2023-05-14T04:10:36;29.23;;;14.27;;
72728;SDS011;60843;52.062;4.508;2023-05-14T04:13:03;28.92;;;13.63;;
72728;SDS011;60843;52.062;4.508;2023-05-14T04:15:28;21.60;;;11.20;;
72728;SDS011;60843;52.062;4.508;2023-05-14T04:17:53;32.57;;;14.67;;
72728;SDS011;60843;52.062;4.508;2023-05-14T04:20:19;27.45;;;13.07;;
72728;SDS011;60843;52.062;4.508;2023-05-14T04:22:44;28.10;;;14.38;;
72728;SDS011;60843;52.062;4.508;2023-05-14T04:25:11;28.23;;;14.10;;
72728;SDS011;60843;52.062;4.508;2023-05-14T04:27:36;27.02;;;14.68;;
72728;SDS011;60843;52.062;4.508;2023-05-14T04:30:01;27.33;;;14.37;;
72728;SDS011;60843;52.062;4.508;2023-05-14T04:32:28;32.67;;;13.98;;
72728;SDS011;60843;52.062;4.508;2023-05-14T04:34:54;27.70;;;13.48;;
72728;SDS011;60843;52.062;4.508;2023-05-14T04:37:19;26.65;;;12.27;;
72728;SDS011;60843;52.062;4.508;2023-05-14T04:39:45;27.07;;;12.77;;
72728;SDS011;60843;52.062;4.508;2023-05-14T04:42:10;23.47;;;12.07;;
72728;SDS011;60843;52.062;4.508;2023-05-14T04:44:36;23.45;;;12.82;;
72728;SDS011;60843;52.062;4.508;2023-05-14T04:47:01;24.13;;;12.20;;
72728;SDS011;60843;52.062;4.508;2023-05-14T04:49:27;24.02;;;13.02;;
72728;SDS011;60843;52.062;4.508;2023-05-14T04:51:53;28.88;;;12.82;;
72728;SDS011;60843;52.062;4.508;2023-05-14T04:54:18;26.80;;;13.10;;
72728;SDS011;60843;52.062;4.508;2023-05-14T04:56:44;23.65;;;12.50;;
72728;SDS011;60843;52.062;4.508;2023-05-14T04:59:10;24.85;;;12.40;;
72728;SDS011;60843;52.062;4.508;2023-05-14T05:01:35;21.70;;;11.23;;
72728;SDS011;60843;52.062;4.508;2023-05-14T05:04:00;26.02;;;12.02;;
72728;SDS011;60843;52.062;4.508;2023-05-14T05:06:26;32.22;;;13.73;;
72728;SDS011;60843;52.062;4.508;2023-05-14T05:08:51;21.17;;;10.20;;
72728;SDS011;60843;52.062;4.508;2023-05-14T05:11:16;28.07;;;10.60;;
72728;SDS011;60843;52.062;4.508;2023-05-14T05:13:42;29.23;;;13.77;;
72728;SDS011;60843;52.062;4.508;2023-05-14T05:16:07;24.17;;;11.07;;
72728;SDS011;60843;52.062;4.508;2023-05-14T05:18:32;26.77;;;12.70;;
72728;SDS011;60843;52.062;4.508;2023-05-14T05:20:58;19.83;;;10.53;;
72728;SDS011;60843;52.062;4.508;2023-05-14T05:23:23;27.20;;;13.20;;
72728;SDS011;60843;52.062;4.508;2023-05-14T05:25:48;28.67;;;13.77;;
72728;SDS011;60843;52.062;4.508;2023-05-14T05:28:14;35.20;;;14.35;;
72728;SDS011;60843;52.062;4.508;2023-05-14T05:30:40;28.58;;;11.82;;
72728;SDS011;60843;52.062;4.508;2023-05-14T05:33:05;24.53;;;12.23;;
72728;SDS011;60843;52.062;4.508;2023-05-14T05:35:31;28.33;;;12.60;;
72728;SDS011;60843;52.062;4.508;2023-05-14T05:37:56;25.70;;;11.57;;
72728;SDS011;60843;52.062;4.508;2023-05-14T05:40:22;32.83;;;13.52;;
72728;SDS011;60843;52.062;4.508;2023-05-14T05:42:47;32.57;;;15.90;;
72728;SDS011;60843;52.062;4.508;2023-05-14T05:45:12;29.30;;;14.00;;
72728;SDS011;60843;52.062;4.508;2023-05-14T05:47:38;32.77;;;12.73;;
72728;SDS011;60843;52.062;4.508;2023-05-14T05:50:03;30.57;;;13.23;;
72728;SDS011;60843;52.062;4.508;2023-05-14T05:52:29;35.33;;;15.07;;
72728;SDS011;60843;52.062;4.508;2023-05-14T05:54:54;39.57;;;15.50;;
72728;SDS011;60843;52.062;4.508;2023-05-14T05:57:19;32.05;;;12.02;;
72728;SDS011;60843;52.062;4.508;2023-05-14T05:59:46;23.50;;;10.80;;
72728;SDS011;60843;52.062;4.508;2023-05-14T06:02:11;41.73;;;18.00;;
72728;SDS011;60843;52.062;4.508;2023-05-14T06:04:36;25.80;;;11.27;;
72728;SDS011;60843;52.062;4.508;2023-05-14T06:07:02;29.43;;;13.57;;
72728;SDS011;60843;52.062;4.508;2023-05-14T06:09:27;29.55;;;14.02;;
72728;SDS011;60843;52.062;4.508;2023-05-14T06:11:52;35.90;;;17.27;;
72728;SDS011;60843;52.062;4.508;2023-05-14T06:14:18;37.20;;;17.70;;
72728;SDS011;60843;52.062;4.508;2023-05-14T06:16:43;32.87;;;16.43;;
72728;SDS011;60843;52.062;4.508;2023-05-14T06:19:09;36.47;;;16.95;;
72728;SDS011;60843;52.062;4.508;2023-05-14T06:21:35;34.13;;;15.00;;
72728;SDS011;60843;52.062;4.508;2023-05-14T06:24:00;29.83;;;15.50;;
72728;SDS011;60843;52.062;4.508;2023-05-14T06:26:25;32.20;;;14.97;;
72728;SDS011;60843;52.062;4.508;2023-05-14T06:28:51;29.27;;;14.20;;
72728;SDS011;60843;52.062;4.508;2023-05-14T06:31:16;32.13;;;17.23;;
72728;SDS011;60843;52.062;4.508;2023-05-14T06:33:42;23.08;;;11.75;;
72728;SDS011;60843;52.062;4.508;2023-05-14T06:36:08;29.45;;;14.65;;
72728;SDS011;60843;52.062;4.508;2023-05-14T06:38:33;32.22;;;15.35;;
72728;SDS011;60843;52.062;4.508;2023-05-14T06:40:59;21.63;;;10.85;;
72728;SDS011;60843;52.062;4.508;2023-05-14T06:43:24;25.52;;;12.65;;
72728;SDS011;60843;52.062;4.508;2023-05-14T06:45:50;23.33;;;13.90;;
72728;SDS011;60843;52.062;4.508;2023-05-14T06:48:16;27.70;;;13.15;;
72728;SDS011;60843;52.062;4.508;2023-05-14T06:50:45;25.88;;;12.88;;
72728;SDS011;60843;52.062;4.508;2023-05-14T06:53:11;24.20;;;12.60;;
72728;SDS011;60843;52.062;4.508;2023-05-14T06:55:37;19.05;;;10.32;;
72728;SDS011;60843;52.062;4.508;2023-05-14T06:58:02;25.80;;;13.57;;
72728;SDS011;60843;52.062;4.508;2023-05-14T07:00:28;28.48;;;13.45;;
72728;SDS011;60843;52.062;4.508;2023-05-14T07:02:54;24.00;;;11.20;;
72728;SDS011;60843;52.062;4.508;2023-05-14T07:05:19;24.57;;;13.23;;
72728;SDS011;60843;52.062;4.508;2023-05-14T07:07:45;23.63;;;11.63;;
72728;SDS011;60843;52.062;4.508;2023-05-14T07:10:10;25.00;;;12.10;;
72728;SDS011;60843;52.062;4.508;2023-05-14T07:12:36;22.08;;;11.55;;
72728;SDS011;60843;52.062;4.508;2023-05-14T07:15:01;24.23;;;12.67;;
72728;SDS011;60843;52.062;4.508;2023-05-14T07:17:26;23.30;;;10.93;;
72728;SDS011;60843;52.062;4.508;2023-05-14T07:19:52;23.13;;;11.83;;
72728;SDS011;60843;52.062;4.508;2023-05-14T07:22:19;20.80;;;10.88;;
72728;SDS011;60843;52.062;4.508;2023-05-14T07:24:44;16.67;;;7.75;;
72728;SDS011;60843;52.062;4.508;2023-05-14T07:27:10;18.00;;;9.57;;
72728;SDS011;60843;52.062;4.508;2023-05-14T07:29:36;20.65;;;8.88;;
72728;SDS011;60843;52.062;4.508;2023-05-14T07:32:01;19.58;;;9.93;;
72728;SDS011;60843;52.062;4.508;2023-05-14T07:34:27;17.00;;;9.57;;
72728;SDS011;60843;52.062;4.508;2023-05-14T07:36:52;16.73;;;9.20;;
72728;SDS011;60843;52.062;4.508;2023-05-14T07:39:18;20.90;;;10.67;;
72728;SDS011;60843;52.062;4.508;2023-05-14T07:41:43;22.50;;;10.27;;
72728;SDS011;60843;52.062;4.508;2023-05-14T07:44:08;23.77;;;12.60;;
72728;SDS011;60843;52.062;4.508;2023-05-14T07:46:34;22.23;;;9.98;;
72728;SDS011;60843;52.062;4.508;2023-05-14T07:49:00;21.30;;;9.63;;
72728;SDS011;60843;52.062;4.508;2023-05-14T07:51:25;13.10;;;7.00;;
72728;SDS011;60843;52.062;4.508;2023-05-14T07:53:52;15.40;;;8.50;;
72728;SDS011;60843;52.062;4.508;2023-05-14T07:56:19;19.88;;;9.13;;
72728;SDS011;60843;52.062;4.508;2023-05-14T07:58:45;14.68;;;7.28;;
72728;SDS011;60843;52.062;4.508;2023-05-14T08:01:10;17.80;;;8.48;;
72728;SDS011;60843;52.062;4.508;2023-05-14T08:03:36;14.63;;;7.15;;
72728;SDS011;60843;52.062;4.508;2023-05-14T08:06:02;15.33;;;7.97;;
72728;SDS011;60843;52.062;4.508;2023-05-14T08:08:28;11.85;;;6.35;;
72728;SDS011;60843;52.062;4.508;2023-05-14T08:10:53;15.90;;;7.68;;
72728;SDS011;60843;52.062;4.508;2023-05-14T08:13:19;23.40;;;8.70;;
72728;SDS011;60843;52.062;4.508;2023-05-14T08:15:45;16.08;;;8.55;;
72728;SDS011;60843;52.062;4.508;2023-05-14T08:18:10;18.07;;;8.03;;
72728;SDS011;60843;52.062;4.508;2023-05-14T08:20:35;14.27;;;7.20;;
72728;SDS011;60843;52.062;4.508;2023-05-14T08:23:01;12.43;;;6.20;;
72728;SDS011;60843;52.062;4.508;2023-05-14T08:25:26;17.70;;;7.70;;
72728;SDS011;60843;52.062;4.508;2023-05-14T08:27:51;10.13;;;5.63;;
72728;SDS011;60843;52.062;4.508;2023-05-14T08:30:18;15.60;;;6.18;;
72728;SDS011;60843;52.062;4.508;2023-05-14T08:32:43;13.73;;;6.50;;
72728;SDS011;60843;52.062;4.508;2023-05-14T08:35:09;15.68;;;6.68;;
72728;SDS011;60843;52.062;4.508;2023-05-14T08:37:35;18.35;;;7.50;;
72728;SDS011;60843;52.062;4.508;2023-05-14T08:40:00;25.73;;;10.90;;
72728;SDS011;60843;52.062;4.508;2023-05-14T08:42:25;15.87;;;6.80;;
72728;SDS011;60843;52.062;4.508;2023-05-14T08:44:55;8.90;;;4.95;;
72728;SDS011;60843;52.062;4.508;2023-05-14T08:47:22;16.55;;;5.97;;
72728;SDS011;60843;52.062;4.508;2023-05-14T08:49:50;13.00;;;5.95;;
72728;SDS011;60843;52.062;4.508;2023-05-14T08:52:19;14.85;;;5.82;;
72728;SDS011;60843;52.062;4.508;2023-05-14T08:54:46;13.57;;;6.55;;
72728;SDS011;60843;52.062;4.508;2023-05-14T08:57:12;14.90;;;5.75;;
72728;SDS011;60843;52.062;4.508;2023-05-14T08:59:38;11.60;;;5.85;;
72728;SDS011;60843;52.062;4.508;2023-05-14T09:02:04;10.23;;;4.20;;
72728;SDS011;60843;52.062;4.508;2023-05-14T09:04:30;12.38;;;5.68;;
72728;SDS011;60843;52.062;4.508;2023-05-14T09:06:56;10.30;;;5.72;;
72728;SDS011;60843;52.062;4.508;2023-05-14T09:11:50;10.45;;;5.57;;
72728;SDS011;60843;52.062;4.508;2023-05-14T09:14:16;11.13;;;6.03;;
72728;SDS011;60843;52.062;4.508;2023-05-14T09:16:45;12.77;;;5.55;;
72728;SDS011;60843;52.062;4.508;2023-05-14T09:19:11;12.93;;;6.47;;
72728;SDS011;60843;52.062;4.508;2023-05-14T09:21:37;16.20;;;5.70;;
72728;SDS011;60843;52.062;4.508;2023-05-14T09:24:03;11.88;;;5.60;;
72728;SDS011;60843;52.062;4.508;2023-05-14T09:26:30;11.77;;;4.72;;
72728;SDS011;60843;52.062;4.508;2023-05-14T09:28:57;10.20;;;5.38;;
72728;SDS011;60843;52.062;4.508;2023-05-14T09:31:29;9.77;;;5.25;;
72728;SDS011;60843;52.062;4.508;2023-05-14T09:33:56;15.18;;;5.35;;
72728;SDS011;60843;52.062;4.508;2023-05-14T09:36:22;13.55;;;5.20;;
72728;SDS011;60843;52.062;4.508;2023-05-14T09:38:49;15.20;;;6.47;;
72728;SDS011;60843;52.062;4.508;2023-05-14T09:41:15;13.80;;;5.80;;
72728;SDS011;60843;52.062;4.508;2023-05-14T09:43:41;8.40;;;3.97;;
72728;SDS011;60843;52.062;4.508;2023-05-14T09:46:06;12.68;;;5.80;;
72728;SDS011;60843;52.062;4.508;2023-05-14T09:48:31;12.23;;;5.78;;
72728;SDS011;60843;52.062;4.508;2023-05-14T09:50:58;19.57;;;6.13;;
72728;SDS011;60843;52.062;4.508;2023-05-14T09:53:23;12.32;;;5.45;;
72728;SDS011;60843;52.062;4.508;2023-05-14T09:55:48;17.53;;;5.73;;
72728;SDS011;60843;52.062;4.508;2023-05-14T09:58:14;14.93;;;6.13;;
72728;SDS011;60843;52.062;4.508;2023-05-14T10:00:43;17.48;;;7.40;;
72728;SDS011;60843;52.062;4.508;2023-05-14T10:03:09;13.48;;;6.72;;
72728;SDS011;60843;52.062;4.508;2023-05-14T10:08:04;10.18;;;5.63;;
72728;SDS011;60843;52.062;4.508;2023-05-14T10:10:33;14.63;;;6.38;;
72728;SDS011;60843;52.062;4.508;2023-05-14T10:13:03;13.35;;;5.75;;
72728;SDS011;60843;52.062;4.508;2023-05-14T10:15:32;13.65;;;7.03;;
72728;SDS011;60843;52.062;4.508;2023-05-14T10:18:08;16.23;;;5.22;;
72728;SDS011;60843;52.062;4.508;2023-05-14T10:20:35;12.32;;;5.75;;
72728;SDS011;60843;52.062;4.508;2023-05-14T10:23:02;12.90;;;4.53;;
72728;SDS011;60843;52.062;4.508;2023-05-14T10:25:27;10.97;;;5.17;;
72728;SDS011;60843;52.062;4.508;2023-05-14T10:27:53;20.58;;;7.57;;
72728;SDS011;60843;52.062;4.508;2023-05-14T10:30:19;10.48;;;5.93;;
72728;SDS011;60843;52.062;4.508;2023-05-14T10:32:46;13.52;;;6.03;;
72728;SDS011;60843;52.062;4.508;2023-05-14T10:35:16;18.77;;;6.63;;
72728;SDS011;60843;52.062;4.508;2023-05-14T10:37:44;15.00;;;6.45;;
72728;SDS011;60843;52.062;4.508;2023-05-14T10:40:10;18.83;;;6.80;;
72728;SDS011;60843;52.062;4.508;2023-05-14T10:42:37;14.77;;;6.53;;
72728;SDS011;60843;52.062;4.508;2023-05-14T10:45:08;10.45;;;5.95;;
72728;SDS011;60843;52.062;4.508;2023-05-14T10:47:35;12.43;;;6.15;;
72728;SDS011;60843;52.062;4.508;2023-05-14T10:50:02;16.92;;;6.35;;
72728;SDS011;60843;52.062;4.508;2023-05-14T10:52:29;14.55;;;6.43;;
72728;SDS011;60843;52.062;4.508;2023-05-14T10:54:56;9.75;;;5.13;;
72728;SDS011;60843;52.062;4.508;2023-05-14T10:57:23;18.38;;;6.68;;
72728;SDS011;60843;52.062;4.508;2023-05-14T10:59:51;14.52;;;6.57;;
72728;SDS011;60843;52.062;4.508;2023-05-14T11:02:22;10.57;;;5.53;;
72728;SDS011;60843;52.062;4.508;2023-05-14T11:05:02;16.63;;;5.75;;
72728;SDS011;60843;52.062;4.508;2023-05-14T11:07:42;13.95;;;5.65;;
72728;SDS011;60843;52.062;4.508;2023-05-14T11:10:10;14.93;;;6.22;;
72728;SDS011;60843;52.062;4.508;2023-05-14T11:15:04;18.45;;;6.22;;
72728;SDS011;60843;52.062;4.508;2023-05-14T11:17:31;13.25;;;5.20;;
72728;SDS011;60843;52.062;4.508;2023-05-14T11:19:57;12.73;;;5.20;;
72728;SDS011;60843;52.062;4.508;2023-05-14T11:22:23;12.93;;;5.07;;
72728;SDS011;60843;52.062;4.508;2023-05-14T11:24:48;15.68;;;5.00;;
72728;SDS011;60843;52.062;4.508;2023-05-14T11:27:14;12.50;;;5.97;;
72728;SDS011;60843;52.062;4.508;2023-05-14T11:29:46;11.52;;;5.15;;
72728;SDS011;60843;52.062;4.508;2023-05-14T11:32:13;14.38;;;6.07;;
72728;SDS011;60843;52.062;4.508;2023-05-14T11:34:39;9.68;;;5.13;;
72728;SDS011;60843;52.062;4.508;2023-05-14T11:37:07;11.35;;;4.63;;
72728;SDS011;60843;52.062;4.508;2023-05-14T11:39:34;13.07;;;5.65;;
72728;SDS011;60843;52.062;4.508;2023-05-14T11:42:02;15.30;;;5.93;;
72728;SDS011;60843;52.062;4.508;2023-05-14T11:44:29;10.73;;;5.03;;
72728;SDS011;60843;52.062;4.508;2023-05-14T11:46:55;13.63;;;5.65;;
72728;SDS011;60843;52.062;4.508;2023-05-14T11:49:22;12.18;;;5.22;;
72728;SDS011;60843;52.062;4.508;2023-05-14T11:51:48;12.50;;;5.78;;
72728;SDS011;60843;52.062;4.508;2023-05-14T11:54:13;11.77;;;5.38;;
72728;SDS011;60843;52.062;4.508;2023-05-14T11:56:40;12.50;;;4.67;;
72728;SDS011;60843;52.062;4.508;2023-05-14T11:59:05;13.05;;;6.10;;
72728;SDS011;60843;52.062;4.508;2023-05-14T12:01:35;11.40;;;4.80;;
72728;SDS011;60843;52.062;4.508;2023-05-14T12:04:02;7.82;;;4.25;;
72728;SDS011;60843;52.062;4.508;2023-05-14T12:06:33;7.78;;;4.93;;
72728;SDS011;60843;52.062;4.508;2023-05-14T12:08:58;7.60;;;4.82;;
72728;SDS011;60843;52.062;4.508;2023-05-14T12:11:29;13.07;;;5.95;;
72728;SDS011;60843;52.062;4.508;2023-05-14T12:13:55;15.65;;;5.47;;
72728;SDS011;60843;52.062;4.508;2023-05-14T12:16:21;6.97;;;4.70;;
72728;SDS011;60843;52.062;4.508;2023-05-14T12:18:46;9.00;;;4.40;;
72728;SDS011;60843;52.062;4.508;2023-05-14T12:21:12;10.80;;;5.17;;
72728;SDS011;60843;52.062;4.508;2023-05-14T12:23:37;13.57;;;4.63;;
72728;SDS011;60843;52.062;4.508;2023-05-14T12:26:03;10.10;;;4.20;;
72728;SDS011;60843;52.062;4.508;2023-05-14T12:28:30;12.40;;;4.78;;
72728;SDS011;60843;52.062;4.508;2023-05-14T12:30:55;10.80;;;5.22;;
72728;SDS011;60843;52.062;4.508;2023-05-14T12:33:21;12.88;;;4.93;;
72728;SDS011;60843;52.062;4.508;2023-05-14T12:35:48;8.13;;;4.63;;
72728;SDS011;60843;52.062;4.508;2023-05-14T12:38:13;14.48;;;5.53;;
72728;SDS011;60843;52.062;4.508;2023-05-14T12:40:39;11.17;;;4.73;;
72728;SDS011;60843;52.062;4.508;2023-05-14T12:43:04;8.75;;;4.55;;
72728;SDS011;60843;52.062;4.508;2023-05-14T12:45:30;9.30;;;3.97;;
72728;SDS011;60843;52.062;4.508;2023-05-14T12:47:55;15.63;;;5.30;;
72728;SDS011;60843;52.062;4.508;2023-05-14T12:50:20;9.80;;;4.43;;
72728;SDS011;60843;52.062;4.508;2023-05-14T12:52:46;12.97;;;5.83;;
72728;SDS011;60843;52.062;4.508;2023-05-14T12:55:11;11.48;;;6.30;;
72728;SDS011;60843;52.062;4.508;2023-05-14T12:57:37;10.67;;;5.93;;
72728;SDS011;60843;52.062;4.508;2023-05-14T13:00:02;11.57;;;6.53;;
72728;SDS011;60843;52.062;4.508;2023-05-14T13:02:32;16.02;;;5.97;;
72728;SDS011;60843;52.062;4.508;2023-05-14T13:04:57;16.13;;;5.68;;
72728;SDS011;60843;52.062;4.508;2023-05-14T13:07:22;13.43;;;5.67;;
72728;SDS011;60843;52.062;4.508;2023-05-14T13:09:48;10.87;;;5.20;;
72728;SDS011;60843;52.062;4.508;2023-05-14T13:12:13;11.80;;;5.33;;
72728;SDS011;60843;52.062;4.508;2023-05-14T13:14:38;13.10;;;4.20;;
72728;SDS011;60843;52.062;4.508;2023-05-14T13:17:04;20.57;;;5.27;;
72728;SDS011;60843;52.062;4.508;2023-05-14T13:19:29;10.20;;;5.05;;
72728;SDS011;60843;52.062;4.508;2023-05-14T13:21:55;12.40;;;4.50;;
72728;SDS011;60843;52.062;4.508;2023-05-14T13:24:20;5.88;;;4.32;;
72728;SDS011;60843;52.062;4.508;2023-05-14T13:26:45;11.18;;;4.47;;
72728;SDS011;60843;52.062;4.508;2023-05-14T13:29:11;8.38;;;4.07;;
72728;SDS011;60843;52.062;4.508;2023-05-14T13:31:36;9.23;;;4.47;;
72728;SDS011;60843;52.062;4.508;2023-05-14T13:34:02;9.50;;;3.97;;
72728;SDS011;60843;52.062;4.508;2023-05-14T13:36:27;11.47;;;5.20;;
72728;SDS011;60843;52.062;4.508;2023-05-14T13:38:52;8.15;;;4.63;;
72728;SDS011;60843;52.062;4.508;2023-05-14T13:41:18;13.63;;;4.80;;
72728;SDS011;60843;52.062;4.508;2023-05-14T13:43:43;15.70;;;5.40;;
72728;SDS011;60843;52.062;4.508;2023-05-14T13:46:08;11.63;;;4.47;;
72728;SDS011;60843;52.062;4.508;2023-05-14T13:48:34;19.10;;;5.28;;
72728;SDS011;60843;52.062;4.508;2023-05-14T13:51:01;11.00;;;4.93;;
72728;SDS011;60843;52.062;4.508;2023-05-14T13:53:26;5.28;;;3.50;;
72728;SDS011;60843;52.062;4.508;2023-05-14T13:55:52;9.73;;;5.60;;
72728;SDS011;60843;52.062;4.508;2023-05-14T13:58:22;7.18;;;3.65;;
72728;SDS011;60843;52.062;4.508;2023-05-14T14:00:48;10.68;;;5.72;;
72728;SDS011;60843;52.062;4.508;2023-05-14T14:03:14;14.55;;;5.78;;
72728;SDS011;60843;52.062;4.508;2023-05-14T14:05:39;7.77;;;4.40;;
72728;SDS011;60843;52.062;4.508;2023-05-14T14:08:05;4.97;;;3.07;;
72728;SDS011;60843;52.062;4.508;2023-05-14T14:10:30;7.80;;;4.57;;
72728;SDS011;60843;52.062;4.508;2023-05-14T14:12:56;11.10;;;5.78;;
72728;SDS011;60843;52.062;4.508;2023-05-14T14:15:21;7.67;;;4.40;;
72728;SDS011;60843;52.062;4.508;2023-05-14T14:17:46;8.45;;;3.58;;
72728;SDS011;60843;52.062;4.508;2023-05-14T14:20:13;11.77;;;4.82;;
72728;SDS011;60843;52.062;4.508;2023-05-14T14:22:38;10.30;;;2.63;;
72728;SDS011;60843;52.062;4.508;2023-05-14T14:25:04;10.30;;;3.28;;
72728;SDS011;60843;52.062;4.508;2023-05-14T14:27:31;7.10;;;4.78;;
72728;SDS011;60843;52.062;4.508;2023-05-14T14:29:58;6.25;;;3.50;;
72728;SDS011;60843;52.062;4.508;2023-05-14T14:32:24;11.00;;;3.95;;
72728;SDS011;60843;52.062;4.508;2023-05-14T14:34:49;9.10;;;4.87;;
72728;SDS011;60843;52.062;4.508;2023-05-14T14:37:14;10.33;;;5.90;;
72728;SDS011;60843;52.062;4.508;2023-05-14T14:39:40;13.20;;;5.47;;